sensor_id;sensor_type;location;lat;lon;timestamp;pressure;altitude;pressure_sealevel;temperature;humidity
5952;BME280;3001;42.622;23.194;2023-03-23T00:02:04;91242.97;;;7.87;93.15
5952;BME280;3001;42.622;23.194;2023-03-23T00:04:31;91244.72;;;7.59;94.21
5952;BME280;3001;42.622;23.194;2023-03-23T00:06:58;91246.56;;;7.59;91.86
5952;BME280;3001;42.622;23.194;2023-03-23T00:09:26;91242.38;;;7.44;91.49
5952;BME280;3001;42.622;23.194;2023-03-23T00:11:53;91237.75;;;7.60;91.17
5952;BME280;3001;42.622;23.194;2023-03-23T00:14:22;91240.63;;;7.72;90.74
5952;BME280;3001;42.622;23.194;2023-03-23T00:16:50;91232.28;;;7.61;92.27
5952;BME280;3001;42.622;23.194;2023-03-23T00:19:18;91234.56;;;7.49;93.25
5952;BME280;3001;42.622;23.194;2023-03-23T00:21:45;91231.28;;;7.44;93.91
5952;BME280;3001;42.622;23.194;2023-03-23T00:24:14;91236.38;;;7.49;93.86
5952;BME280;3001;42.622;23.194;2023-03-23T00:26:43;91237.06;;;7.54;93.80
5952;BME280;3001;42.622;23.194;2023-03-23T00:29:13;91236.56;;;7.52;93.11
5952;BME280;3001;42.622;23.194;2023-03-23T00:31:40;91238.84;;;7.54;92.40
5952;BME280;3001;42.622;23.194;2023-03-23T00:34:12;91231.56;;;7.74;91.61
5952;BME280;3001;42.622;23.194;2023-03-23T00:36:45;91234.97;;;7.70;92.42
5952;BME280;3001;42.622;23.194;2023-03-23T00:39:12;91238.22;;;7.62;92.38
5952;BME280;3001;42.622;23.194;2023-03-23T00:41:41;91232.38;;;7.56;91.75
5952;BME280;3001;42.622;23.194;2023-03-23T00:44:08;91242.72;;;7.56;91.63
5952;BME280;3001;42.622;23.194;2023-03-23T00:46:35;91235.78;;;7.52;92.40
5952;BME280;3001;42.622;23.194;2023-03-23T00:49:11;91239.13;;;7.39;92.80
5952;BME280;3001;42.622;23.194;2023-03-23T00:51:39;91237.94;;;7.13;94.05
5952;BME280;3001;42.622;23.194;2023-03-23T00:54:07;91241.72;;;7.02;95.20
5952;BME280;3001;42.622;23.194;2023-03-23T00:56:34;91240.13;;;7.06;94.72
5952;BME280;3001;42.622;23.194;2023-03-23T00:59:01;91232.09;;;7.07;95.02
5952;BME280;3001;42.622;23.194;2023-03-23T01:01:28;91231.31;;;7.07;95.84
5952;BME280;3001;42.622;23.194;2023-03-23T01:03:55;91227.97;;;7.06;96.53
5952;BME280;3001;42.622;23.194;2023-03-23T01:06:26;91230.13;;;7.18;96.37
5952;BME280;3001;42.622;23.194;2023-03-23T01:08:54;91228.13;;;7.15;96.97
5952;BME280;3001;42.622;23.194;2023-03-23T01:11:23;91230.00;;;7.09;97.35
5952;BME280;3001;42.622;23.194;2023-03-23T01:13:50;91222.88;;;7.20;97.59
5952;BME280;3001;42.622;23.194;2023-03-23T01:16:17;91220.41;;;7.28;97.43
5952;BME280;3001;42.622;23.194;2023-03-23T01:18:44;91221.69;;;7.44;97.39
5952;BME280;3001;42.622;23.194;2023-03-23T01:21:12;91221.34;;;7.51;96.62
5952;BME280;3001;42.622;23.194;2023-03-23T01:23:40;91215.72;;;7.62;96.16
5952;BME280;3001;42.622;23.194;2023-03-23T01:26:08;91209.34;;;7.73;96.46
5952;BME280;3001;42.622;23.194;2023-03-23T01:28:37;91218.59;;;7.61;96.72
5952;BME280;3001;42.622;23.194;2023-03-23T01:31:07;91215.44;;;7.64;96.34
5952;BME280;3001;42.622;23.194;2023-03-23T01:33:34;91216.91;;;7.83;92.85
5952;BME280;3001;42.622;23.194;2023-03-23T01:36:03;91217.00;;;7.78;93.20
5952;BME280;3001;42.622;23.194;2023-03-23T01:38:30;91216.28;;;7.59;93.96
5952;BME280;3001;42.622;23.194;2023-03-23T01:40:57;91213.19;;;7.44;96.30
5952;BME280;3001;42.622;23.194;2023-03-23T01:43:24;91222.59;;;7.53;95.21
5952;BME280;3001;42.622;23.194;2023-03-23T01:45:52;91213.00;;;7.54;95.56
5952;BME280;3001;42.622;23.194;2023-03-23T01:48:22;91207.13;;;7.67;94.67
5952;BME280;3001;42.622;23.194;2023-03-23T01:50:54;91214.06;;;7.53;94.93
5952;BME280;3001;42.622;23.194;2023-03-23T01:53:23;91211.00;;;7.51;95.12
5952;BME280;3001;42.622;23.194;2023-03-23T01:55:52;91214.00;;;7.26;96.06
5952;BME280;3001;42.622;23.194;2023-03-23T01:58:22;91209.44;;;7.36;96.33
5952;BME280;3001;42.622;23.194;2023-03-23T02:00:53;91211.75;;;7.38;96.31
5952;BME280;3001;42.622;23.194;2023-03-23T02:03:21;91192.06;;;7.23;96.28
5952;BME280;3001;42.622;23.194;2023-03-23T02:05:49;91196.13;;;7.29;96.16
5952;BME280;3001;42.622;23.194;2023-03-23T02:08:17;91198.09;;;7.51;95.48
5952;BME280;3001;42.622;23.194;2023-03-23T02:10:44;91200.25;;;7.30;95.69
5952;BME280;3001;42.622;23.194;2023-03-23T02:13:12;91191.06;;;7.06;96.39
5952;BME280;3001;42.622;23.194;2023-03-23T02:15:57;91205.72;;;7.10;96.53
5952;BME280;3001;42.622;23.194;2023-03-23T02:18:40;91201.47;;;7.01;96.79
5952;BME280;3001;42.622;23.194;2023-03-23T02:21:25;91198.03;;;6.87;97.81
5952;BME280;3001;42.622;23.194;2023-03-23T02:26:55;91195.38;;;6.92;98.08
5952;BME280;3001;42.622;23.194;2023-03-23T02:29:49;91203.78;;;6.84;98.40
5952;BME280;3001;42.622;23.194;2023-03-23T02:32:40;91209.16;;;6.87;98.35
5952;BME280;3001;42.622;23.194;2023-03-23T02:35:18;91203.19;;;6.87;98.32
5952;BME280;3001;42.622;23.194;2023-03-23T02:37:49;91210.94;;;6.87;98.35
5952;BME280;3001;42.622;23.194;2023-03-23T02:40:20;91216.19;;;7.19;97.27
5952;BME280;3001;42.622;23.194;2023-03-23T02:42:49;91211.88;;;6.96;98.37
5952;BME280;3001;42.622;23.194;2023-03-23T02:45:17;91223.56;;;7.07;97.95
5952;BME280;3001;42.622;23.194;2023-03-23T02:47:46;91213.09;;;7.17;97.09
5952;BME280;3001;42.622;23.194;2023-03-23T02:50:16;91208.69;;;7.17;97.17
5952;BME280;3001;42.622;23.194;2023-03-23T02:52:45;91211.28;;;7.17;96.70
5952;BME280;3001;42.622;23.194;2023-03-23T02:55:13;91215.88;;;7.20;96.49
5952;BME280;3001;42.622;23.194;2023-03-23T02:57:41;91211.69;;;7.24;95.73
5952;BME280;3001;42.622;23.194;2023-03-23T03:00:13;91216.31;;;7.27;95.82
5952;BME280;3001;42.622;23.194;2023-03-23T03:02:43;91217.75;;;7.33;96.62
5952;BME280;3001;42.622;23.194;2023-03-23T03:05:21;91220.00;;;7.21;96.92
5952;BME280;3001;42.622;23.194;2023-03-23T03:08:00;91230.38;;;7.35;96.62
5952;BME280;3001;42.622;23.194;2023-03-23T03:10:32;91221.75;;;7.26;96.62
5952;BME280;3001;42.622;23.194;2023-03-23T03:13:04;91218.31;;;7.30;96.40
5952;BME280;3001;42.622;23.194;2023-03-23T03:15:36;91232.06;;;7.26;95.81
5952;BME280;3001;42.622;23.194;2023-03-23T03:18:08;91227.81;;;7.16;96.46
5952;BME280;3001;42.622;23.194;2023-03-23T03:20:41;91211.44;;;7.07;96.30
5952;BME280;3001;42.622;23.194;2023-03-23T03:23:11;91227.69;;;7.08;96.13
5952;BME280;3001;42.622;23.194;2023-03-23T03:25:40;91224.69;;;7.19;96.17
5952;BME280;3001;42.622;23.194;2023-03-23T03:28:13;91235.22;;;7.23;95.76
5952;BME280;3001;42.622;23.194;2023-03-23T03:30:42;91238.44;;;7.15;95.38
5952;BME280;3001;42.622;23.194;2023-03-23T03:33:09;91235.72;;;7.06;96.19
5952;BME280;3001;42.622;23.194;2023-03-23T03:35:40;91232.59;;;7.09;95.16
5952;BME280;3001;42.622;23.194;2023-03-23T03:38:10;91241.22;;;7.18;94.78
5952;BME280;3001;42.622;23.194;2023-03-23T03:40:37;91234.25;;;7.00;95.29
5952;BME280;3001;42.622;23.194;2023-03-23T03:43:04;91239.16;;;7.02;95.37
5952;BME280;3001;42.622;23.194;2023-03-23T03:45:32;91239.00;;;6.93;95.82
5952;BME280;3001;42.622;23.194;2023-03-23T03:47:58;91242.34;;;6.94;95.25
5952;BME280;3001;42.622;23.194;2023-03-23T03:50:26;91244.16;;;6.93;95.02
5952;BME280;3001;42.622;23.194;2023-03-23T03:52:54;91235.88;;;6.96;94.78
5952;BME280;3001;42.622;23.194;2023-03-23T03:55:22;91243.53;;;7.01;94.70
5952;BME280;3001;42.622;23.194;2023-03-23T03:57:49;91234.81;;;6.97;94.74
5952;BME280;3001;42.622;23.194;2023-03-23T04:00:16;91224.41;;;6.66;95.20
5952;BME280;3001;42.622;23.194;2023-03-23T04:02:46;91239.13;;;6.65;96.35
5952;BME280;3001;42.622;23.194;2023-03-23T04:05:17;91236.31;;;6.62;96.47
5952;BME280;3001;42.622;23.194;2023-03-23T04:07:45;91240.16;;;6.64;96.35
5952;BME280;3001;42.622;23.194;2023-03-23T04:10:16;91234.03;;;6.60;96.66
5952;BME280;3001;42.622;23.194;2023-03-23T04:12:45;91235.59;;;6.38;96.74
5952;BME280;3001;42.622;23.194;2023-03-23T04:15:11;91237.38;;;6.61;96.94
5952;BME280;3001;42.622;23.194;2023-03-23T04:17:39;91234.06;;;6.37;96.74
5952;BME280;3001;42.622;23.194;2023-03-23T04:20:07;91239.47;;;6.59;96.03
5952;BME280;3001;42.622;23.194;2023-03-23T04:22:40;91244.84;;;6.62;95.14
5952;BME280;3001;42.622;23.194;2023-03-23T04:25:09;91241.22;;;6.63;95.17
5952;BME280;3001;42.622;23.194;2023-03-23T04:27:39;91237.44;;;6.56;95.18
5952;BME280;3001;42.622;23.194;2023-03-23T04:30:09;91237.66;;;6.59;95.27
5952;BME280;3001;42.622;23.194;2023-03-23T04:32:37;91240.03;;;6.56;95.63
5952;BME280;3001;42.622;23.194;2023-03-23T04:35:08;91235.75;;;6.46;95.65
5952;BME280;3001;42.622;23.194;2023-03-23T04:37:36;91235.44;;;6.29;96.93
5952;BME280;3001;42.622;23.194;2023-03-23T04:40:03;91240.03;;;6.32;96.41
5952;BME280;3001;42.622;23.194;2023-03-23T04:42:38;91238.16;;;6.38;96.84
5952;BME280;3001;42.622;23.194;2023-03-23T04:45:07;91250.47;;;6.46;96.65
5952;BME280;3001;42.622;23.194;2023-03-23T04:47:36;91242.94;;;6.49;96.84
5952;BME280;3001;42.622;23.194;2023-03-23T04:50:07;91249.63;;;6.50;96.54
5952;BME280;3001;42.622;23.194;2023-03-23T04:52:34;91240.84;;;6.51;96.84
5952;BME280;3001;42.622;23.194;2023-03-23T04:55:03;91245.09;;;6.61;97.08
5952;BME280;3001;42.622;23.194;2023-03-23T04:57:30;91247.97;;;6.59;96.75
5952;BME280;3001;42.622;23.194;2023-03-23T04:59:59;91248.69;;;6.65;96.70
5952;BME280;3001;42.622;23.194;2023-03-23T05:02:26;91256.22;;;6.61;97.43
5952;BME280;3001;42.622;23.194;2023-03-23T05:04:55;91256.03;;;6.76;97.76
5952;BME280;3001;42.622;23.194;2023-03-23T05:07:22;91261.59;;;6.83;98.20
5952;BME280;3001;42.622;23.194;2023-03-23T05:09:49;91263.91;;;6.84;99.02
5952;BME280;3001;42.622;23.194;2023-03-23T05:12:16;91259.41;;;6.95;97.66
5952;BME280;3001;42.622;23.194;2023-03-23T05:14:42;91264.34;;;7.10;97.16
5952;BME280;3001;42.622;23.194;2023-03-23T05:17:10;91267.75;;;7.24;96.85
5952;BME280;3001;42.622;23.194;2023-03-23T05:19:38;91281.06;;;7.31;96.62
5952;BME280;3001;42.622;23.194;2023-03-23T05:22:06;91275.84;;;7.36;96.81
5952;BME280;3001;42.622;23.194;2023-03-23T05:24:33;91277.78;;;7.44;96.58
5952;BME280;3001;42.622;23.194;2023-03-23T05:26:59;91278.19;;;7.51;93.19
5952;BME280;3001;42.622;23.194;2023-03-23T05:29:27;91283.44;;;7.46;93.62
5952;BME280;3001;42.622;23.194;2023-03-23T05:31:55;91281.81;;;7.50;93.38
5952;BME280;3001;42.622;23.194;2023-03-23T05:34:26;91282.81;;;7.35;93.41
5952;BME280;3001;42.622;23.194;2023-03-23T05:36:54;91290.31;;;7.37;93.84
5952;BME280;3001;42.622;23.194;2023-03-23T05:39:22;91296.44;;;7.41;93.33
5952;BME280;3001;42.622;23.194;2023-03-23T05:41:49;91290.72;;;7.44;91.56
5952;BME280;3001;42.622;23.194;2023-03-23T05:44:17;91300.09;;;7.40;90.47
5952;BME280;3001;42.622;23.194;2023-03-23T05:46:43;91301.69;;;7.36;89.98
5952;BME280;3001;42.622;23.194;2023-03-23T05:49:10;91302.31;;;7.28;91.08
5952;BME280;3001;42.622;23.194;2023-03-23T05:51:39;91305.38;;;7.30;90.20
5952;BME280;3001;42.622;23.194;2023-03-23T05:54:06;91304.41;;;7.26;90.90
5952;BME280;3001;42.622;23.194;2023-03-23T05:56:32;91306.50;;;7.24;90.62
5952;BME280;3001;42.622;23.194;2023-03-23T05:58:59;91309.56;;;7.26;90.94
5952;BME280;3001;42.622;23.194;2023-03-23T06:01:28;91309.00;;;7.29;91.00
5952;BME280;3001;42.622;23.194;2023-03-23T06:03:55;91302.09;;;7.24;91.86
5952;BME280;3001;42.622;23.194;2023-03-23T06:06:24;91304.28;;;7.36;91.92
5952;BME280;3001;42.622;23.194;2023-03-23T06:08:52;91313.19;;;7.43;91.25
5952;BME280;3001;42.622;23.194;2023-03-23T06:11:18;91314.06;;;7.39;92.04
5952;BME280;3001;42.622;23.194;2023-03-23T06:13:45;91313.81;;;7.54;91.85
5952;BME280;3001;42.622;23.194;2023-03-23T06:16:12;91306.34;;;7.34;93.15
5952;BME280;3001;42.622;23.194;2023-03-23T06:18:38;91307.06;;;7.39;93.72
5952;BME280;3001;42.622;23.194;2023-03-23T06:21:06;91310.25;;;7.50;93.19
5952;BME280;3001;42.622;23.194;2023-03-23T06:23:33;91309.78;;;7.48;93.68
5952;BME280;3001;42.622;23.194;2023-03-23T06:26:05;91313.56;;;7.37;94.57
5952;BME280;3001;42.622;23.194;2023-03-23T06:28:33;91306.44;;;7.29;94.64
5952;BME280;3001;42.622;23.194;2023-03-23T06:31:00;91316.00;;;7.47;93.74
5952;BME280;3001;42.622;23.194;2023-03-23T06:33:27;91294.19;;;7.53;93.83
5952;BME280;3001;42.622;23.194;2023-03-23T06:35:54;91305.63;;;7.65;93.37
5952;BME280;3001;42.622;23.194;2023-03-23T06:38:21;91304.59;;;7.48;93.61
5952;BME280;3001;42.622;23.194;2023-03-23T06:40:48;91311.56;;;7.66;93.62
5952;BME280;3001;42.622;23.194;2023-03-23T06:43:16;91314.56;;;7.73;93.53
5952;BME280;3001;42.622;23.194;2023-03-23T06:45:42;91309.16;;;7.88;92.55
5952;BME280;3001;42.622;23.194;2023-03-23T06:48:09;91317.72;;;7.70;94.37
5952;BME280;3001;42.622;23.194;2023-03-23T06:50:36;91314.56;;;7.73;94.67
5952;BME280;3001;42.622;23.194;2023-03-23T06:53:02;91314.81;;;7.90;95.16
5952;BME280;3001;42.622;23.194;2023-03-23T06:55:29;91311.38;;;7.94;95.77
5952;BME280;3001;42.622;23.194;2023-03-23T06:57:56;91315.63;;;8.04;96.35
5952;BME280;3001;42.622;23.194;2023-03-23T07:00:25;91319.03;;;8.18;97.12
5952;BME280;3001;42.622;23.194;2023-03-23T07:02:52;91322.38;;;8.18;97.43
5952;BME280;3001;42.622;23.194;2023-03-23T07:05:19;91313.59;;;8.33;97.65
5952;BME280;3001;42.622;23.194;2023-03-23T07:07:46;91313.00;;;8.36;98.65
5952;BME280;3001;42.622;23.194;2023-03-23T07:10:12;91318.00;;;8.32;99.60
5952;BME280;3001;42.622;23.194;2023-03-23T07:12:40;91320.81;;;8.49;100.00
5952;BME280;3001;42.622;23.194;2023-03-23T07:15:08;91316.13;;;8.64;99.69
5952;BME280;3001;42.622;23.194;2023-03-23T07:17:37;91318.69;;;8.91;98.82
5952;BME280;3001;42.622;23.194;2023-03-23T07:20:05;91313.97;;;9.07;99.55
5952;BME280;3001;42.622;23.194;2023-03-23T07:22:33;91321.09;;;9.15;99.91
5952;BME280;3001;42.622;23.194;2023-03-23T07:24:59;91309.34;;;9.17;100.00
5952;BME280;3001;42.622;23.194;2023-03-23T07:27:26;91319.09;;;9.47;100.00
5952;BME280;3001;42.622;23.194;2023-03-23T07:29:53;91310.91;;;9.54;99.93
5952;BME280;3001;42.622;23.194;2023-03-23T07:32:22;91314.34;;;9.85;99.01
5952;BME280;3001;42.622;23.194;2023-03-23T07:34:50;91318.13;;;10.01;99.27
5952;BME280;3001;42.622;23.194;2023-03-23T07:37:17;91324.84;;;10.24;98.01
5952;BME280;3001;42.622;23.194;2023-03-23T07:39:44;91310.41;;;10.09;98.71
5952;BME280;3001;42.622;23.194;2023-03-23T07:42:10;91318.22;;;10.39;98.05
5952;BME280;3001;42.622;23.194;2023-03-23T07:44:37;91330.31;;;10.74;96.23
5952;BME280;3001;42.622;23.194;2023-03-23T07:47:04;91326.94;;;10.74;96.40
5952;BME280;3001;42.622;23.194;2023-03-23T07:49:30;91328.63;;;10.70;95.71
5952;BME280;3001;42.622;23.194;2023-03-23T07:51:59;91332.72;;;11.01;94.79
5952;BME280;3001;42.622;23.194;2023-03-23T07:54:26;91343.44;;;11.17;93.69
5952;BME280;3001;42.622;23.194;2023-03-23T07:56:53;91336.47;;;11.34;93.05
5952;BME280;3001;42.622;23.194;2023-03-23T07:59:20;91349.53;;;11.60;92.23
5952;BME280;3001;42.622;23.194;2023-03-23T08:01:47;91350.91;;;11.57;92.10
5952;BME280;3001;42.622;23.194;2023-03-23T08:04:13;91340.19;;;11.59;91.81
5952;BME280;3001;42.622;23.194;2023-03-23T08:06:40;91351.25;;;11.81;90.81
5952;BME280;3001;42.622;23.194;2023-03-23T08:09:08;91355.69;;;11.98;90.66
5952;BME280;3001;42.622;23.194;2023-03-23T08:11:35;91351.38;;;12.10;89.76
5952;BME280;3001;42.622;23.194;2023-03-23T08:14:02;91352.91;;;12.36;90.13
5952;BME280;3001;42.622;23.194;2023-03-23T08:16:30;91357.81;;;12.46;89.31
5952;BME280;3001;42.622;23.194;2023-03-23T08:18:57;91358.63;;;12.76;87.25
5952;BME280;3001;42.622;23.194;2023-03-23T08:21:24;91350.66;;;12.89;85.24
5952;BME280;3001;42.622;23.194;2023-03-23T08:23:52;91361.00;;;13.06;83.79
5952;BME280;3001;42.622;23.194;2023-03-23T08:26:20;91362.75;;;12.85;84.36
5952;BME280;3001;42.622;23.194;2023-03-23T08:28:47;91361.84;;;13.27;82.45
5952;BME280;3001;42.622;23.194;2023-03-23T08:31:14;91339.56;;;13.09;82.41
5952;BME280;3001;42.622;23.194;2023-03-23T08:33:42;91368.34;;;13.50;82.93
5952;BME280;3001;42.622;23.194;2023-03-23T08:36:09;91365.91;;;13.74;80.67
5952;BME280;3001;42.622;23.194;2023-03-23T08:38:36;91359.09;;;13.82;80.46
5952;BME280;3001;42.622;23.194;2023-03-23T08:41:05;91357.13;;;13.99;79.81
5952;BME280;3001;42.622;23.194;2023-03-23T08:43:34;91352.22;;;13.97;78.51
5952;BME280;3001;42.622;23.194;2023-03-23T08:46:01;91367.72;;;14.23;77.50
5952;BME280;3001;42.622;23.194;2023-03-23T08:48:32;91365.53;;;14.45;76.44
5952;BME280;3001;42.622;23.194;2023-03-23T08:51:00;91366.63;;;14.77;74.33
5952;BME280;3001;42.622;23.194;2023-03-23T08:53:27;91365.78;;;14.85;72.21
5952;BME280;3001;42.622;23.194;2023-03-23T08:55:55;91367.56;;;15.05;71.43
5952;BME280;3001;42.622;23.194;2023-03-23T08:58:22;91366.16;;;15.19;69.58
5952;BME280;3001;42.622;23.194;2023-03-23T09:00:50;91366.75;;;15.37;70.14
5952;BME280;3001;42.622;23.194;2023-03-23T09:03:17;91369.50;;;15.52;68.16
5952;BME280;3001;42.622;23.194;2023-03-23T09:05:44;91366.66;;;15.69;65.64
5952;BME280;3001;42.622;23.194;2023-03-23T09:08:11;91369.78;;;15.98;65.84
5952;BME280;3001;42.622;23.194;2023-03-23T09:10:39;91363.53;;;16.03;67.49
5952;BME280;3001;42.622;23.194;2023-03-23T09:13:05;91373.69;;;16.16;65.52
5952;BME280;3001;42.622;23.194;2023-03-23T09:15:33;91372.78;;;16.24;65.52
5952;BME280;3001;42.622;23.194;2023-03-23T09:18:01;91370.81;;;16.21;65.20
5952;BME280;3001;42.622;23.194;2023-03-23T09:20:29;91371.38;;;16.15;63.19
5952;BME280;3001;42.622;23.194;2023-03-23T09:22:56;91370.47;;;16.47;61.68
5952;BME280;3001;42.622;23.194;2023-03-23T09:25:25;91372.97;;;16.43;62.41
5952;BME280;3001;42.622;23.194;2023-03-23T09:27:54;91354.00;;;16.22;63.61
5952;BME280;3001;42.622;23.194;2023-03-23T09:30:22;91365.78;;;16.40;62.81
5952;BME280;3001;42.622;23.194;2023-03-23T09:32:49;91366.34;;;16.61;59.47
5952;BME280;3001;42.622;23.194;2023-03-23T09:35:18;91368.09;;;16.85;60.29
5952;BME280;3001;42.622;23.194;2023-03-23T09:37:47;91357.06;;;17.22;59.61
5952;BME280;3001;42.622;23.194;2023-03-23T09:40:17;91372.94;;;17.41;57.74
5952;BME280;3001;42.622;23.194;2023-03-23T09:42:54;91353.69;;;17.68;57.98
5952;BME280;3001;42.622;23.194;2023-03-23T09:45:27;91360.59;;;17.57;57.03
5952;BME280;3001;42.622;23.194;2023-03-23T09:48:12;91365.41;;;17.70;58.94
5952;BME280;3001;42.622;23.194;2023-03-23T09:50:48;91355.91;;;17.66;56.91
5952;BME280;3001;42.622;23.194;2023-03-23T09:53:21;91364.63;;;17.70;56.15
5952;BME280;3001;42.622;23.194;2023-03-23T09:55:49;91361.91;;;17.66;56.22
5952;BME280;3001;42.622;23.194;2023-03-23T09:58:20;91368.44;;;17.72;56.22
5952;BME280;3001;42.622;23.194;2023-03-23T10:01:03;91367.72;;;17.91;57.58
5952;BME280;3001;42.622;23.194;2023-03-23T10:03:36;91358.25;;;18.21;56.33
5952;BME280;3001;42.622;23.194;2023-03-23T10:06:08;91362.41;;;18.22;54.04
5952;BME280;3001;42.622;23.194;2023-03-23T10:08:38;91356.09;;;18.42;55.71
5952;BME280;3001;42.622;23.194;2023-03-23T10:11:10;91354.06;;;18.35;52.42
5952;BME280;3001;42.622;23.194;2023-03-23T10:13:55;91348.41;;;18.52;55.34
5952;BME280;3001;42.622;23.194;2023-03-23T10:16:27;91351.25;;;18.63;53.46
5952;BME280;3001;42.622;23.194;2023-03-23T10:18:59;91350.25;;;18.71;52.93
5952;BME280;3001;42.622;23.194;2023-03-23T10:21:29;91347.13;;;18.84;52.83
5952;BME280;3001;42.622;23.194;2023-03-23T10:24:02;91349.19;;;19.13;52.74
5952;BME280;3001;42.622;23.194;2023-03-23T10:26:35;91344.94;;;19.09;52.17
5952;BME280;3001;42.622;23.194;2023-03-23T10:29:12;91340.09;;;19.11;49.88
5952;BME280;3001;42.622;23.194;2023-03-23T10:31:43;91345.78;;;19.13;49.07
5952;BME280;3001;42.622;23.194;2023-03-23T10:34:15;91341.00;;;19.18;51.54
5952;BME280;3001;42.622;23.194;2023-03-23T10:36:58;91337.50;;;19.33;51.55
5952;BME280;3001;42.622;23.194;2023-03-23T10:39:30;91348.41;;;19.54;50.42
5952;BME280;3001;42.622;23.194;2023-03-23T10:42:00;91338.97;;;19.53;48.45
5952;BME280;3001;42.622;23.194;2023-03-23T10:44:32;91343.25;;;19.87;48.14
5952;BME280;3001;42.622;23.194;2023-03-23T10:47:01;91331.47;;;19.81;50.73
5952;BME280;3001;42.622;23.194;2023-03-23T10:49:34;91338.38;;;19.89;50.87
5952;BME280;3001;42.622;23.194;2023-03-23T10:52:09;91339.75;;;19.79;48.65
5952;BME280;3001;42.622;23.194;2023-03-23T10:54:54;91331.69;;;19.95;48.16
5952;BME280;3001;42.622;23.194;2023-03-23T10:57:24;91332.69;;;19.87;49.96
5952;BME280;3001;42.622;23.194;2023-03-23T10:59:58;91325.25;;;19.92;48.66
5952;BME280;3001;42.622;23.194;2023-03-23T11:02:27;91330.63;;;19.99;48.19
5952;BME280;3001;42.622;23.194;2023-03-23T11:04:57;91331.25;;;20.15;48.17
5952;BME280;3001;42.622;23.194;2023-03-23T11:07:29;91329.13;;;20.24;47.79
5952;BME280;3001;42.622;23.194;2023-03-23T11:10:11;91320.75;;;20.48;49.24
5952;BME280;3001;42.622;23.194;2023-03-23T11:12:44;91321.47;;;20.45;47.65
5952;BME280;3001;42.622;23.194;2023-03-23T11:15:26;91316.13;;;20.71;46.98
5952;BME280;3001;42.622;23.194;2023-03-23T11:17:59;91318.44;;;20.76;45.95
5952;BME280;3001;42.622;23.194;2023-03-23T11:20:28;91309.53;;;20.55;48.12
5952;BME280;3001;42.622;23.194;2023-03-23T11:22:57;91319.09;;;20.70;45.36
5952;BME280;3001;42.622;23.194;2023-03-23T11:25:24;91310.72;;;20.61;45.79
5952;BME280;3001;42.622;23.194;2023-03-23T11:27:52;91323.25;;;21.00;42.81
5952;BME280;3001;42.622;23.194;2023-03-23T11:30:22;91310.63;;;20.83;44.42
5952;BME280;3001;42.622;23.194;2023-03-23T11:32:50;91298.47;;;20.79;43.26
5952;BME280;3001;42.622;23.194;2023-03-23T11:35:20;91302.94;;;21.04;44.32
5952;BME280;3001;42.622;23.194;2023-03-23T11:37:50;91302.59;;;21.12;45.88
5952;BME280;3001;42.622;23.194;2023-03-23T11:40:21;91302.41;;;21.31;45.68
5952;BME280;3001;42.622;23.194;2023-03-23T11:42:57;91302.78;;;21.30;44.84
5952;BME280;3001;42.622;23.194;2023-03-23T11:45:31;91299.84;;;21.42;43.43
5952;BME280;3001;42.622;23.194;2023-03-23T11:48:06;91296.22;;;21.57;42.60
5952;BME280;3001;42.622;23.194;2023-03-23T11:50:47;91297.81;;;21.65;43.95
5952;BME280;3001;42.622;23.194;2023-03-23T11:53:22;91295.88;;;21.62;41.94
5952;BME280;3001;42.622;23.194;2023-03-23T11:55:58;91282.53;;;21.44;42.68
5952;BME280;3001;42.622;23.194;2023-03-23T11:58:26;91291.56;;;21.43;43.00
5952;BME280;3001;42.622;23.194;2023-03-23T12:01:00;91283.59;;;21.40;39.99
5952;BME280;3001;42.622;23.194;2023-03-23T12:03:51;91296.13;;;21.46;41.72
5952;BME280;3001;42.622;23.194;2023-03-23T12:06:28;91287.50;;;21.53;40.95
5952;BME280;3001;42.622;23.194;2023-03-23T12:09:04;91293.50;;;21.50;42.46
5952;BME280;3001;42.622;23.194;2023-03-23T12:11:40;91284.84;;;21.53;42.79
5952;BME280;3001;42.622;23.194;2023-03-23T12:14:17;91293.31;;;21.72;42.23
5952;BME280;3001;42.622;23.194;2023-03-23T12:16:55;91288.53;;;21.88;41.25
5952;BME280;3001;42.622;23.194;2023-03-23T12:19:31;91284.47;;;22.05;41.20
5952;BME280;3001;42.622;23.194;2023-03-23T12:22:12;91291.34;;;22.16;41.28
5952;BME280;3001;42.622;23.194;2023-03-23T12:24:51;91291.34;;;22.13;40.75
5952;BME280;3001;42.622;23.194;2023-03-23T12:27:32;91290.28;;;22.31;39.24
5952;BME280;3001;42.622;23.194;2023-03-23T12:30:17;91290.63;;;22.23;39.87
5952;BME280;3001;42.622;23.194;2023-03-23T12:33:07;91289.16;;;22.32;39.89
5952;BME280;3001;42.622;23.194;2023-03-23T12:35:46;91285.84;;;22.42;38.82
5952;BME280;3001;42.622;23.194;2023-03-23T12:38:40;91280.09;;;22.37;39.86
5952;BME280;3001;42.622;23.194;2023-03-23T12:41:16;91274.22;;;22.68;39.82
5952;BME280;3001;42.622;23.194;2023-03-23T12:43:52;91271.22;;;22.80;38.20
5952;BME280;3001;42.622;23.194;2023-03-23T12:46:41;91270.50;;;22.96;36.99
5952;BME280;3001;42.622;23.194;2023-03-23T12:49:16;91286.38;;;22.86;35.93
5952;BME280;3001;42.622;23.194;2023-03-23T12:51:48;91281.38;;;22.64;36.63
5952;BME280;3001;42.622;23.194;2023-03-23T12:54:23;91290.13;;;22.75;35.07
5952;BME280;3001;42.622;23.194;2023-03-23T12:56:54;91281.00;;;22.62;36.48
5952;BME280;3001;42.622;23.194;2023-03-23T12:59:36;91278.06;;;22.88;35.81
5952;BME280;3001;42.622;23.194;2023-03-23T13:02:13;91283.63;;;22.55;37.20
5952;BME280;3001;42.622;23.194;2023-03-23T13:04:45;91270.34;;;22.51;36.92
5952;BME280;3001;42.622;23.194;2023-03-23T13:07:17;91275.25;;;22.46;37.21
5952;BME280;3001;42.622;23.194;2023-03-23T13:09:50;91273.84;;;22.73;35.80
5952;BME280;3001;42.622;23.194;2023-03-23T13:12:20;91278.34;;;22.62;37.18
5952;BME280;3001;42.622;23.194;2023-03-23T13:14:56;91277.63;;;22.75;36.64
5952;BME280;3001;42.622;23.194;2023-03-23T13:17:35;91262.69;;;22.32;37.43
5952;BME280;3001;42.622;23.194;2023-03-23T13:20:31;91263.56;;;22.47;37.71
5952;BME280;3001;42.622;23.194;2023-03-23T13:23:05;91259.41;;;22.56;37.16
5952;BME280;3001;42.622;23.194;2023-03-23T13:25:52;91260.19;;;22.64;38.65
5952;BME280;3001;42.622;23.194;2023-03-23T13:28:20;91268.50;;;22.59;37.01
5952;BME280;3001;42.622;23.194;2023-03-23T13:31:00;91259.81;;;22.65;37.40
5952;BME280;3001;42.622;23.194;2023-03-23T13:33:32;91262.13;;;22.74;37.41
5952;BME280;3001;42.622;23.194;2023-03-23T13:36:07;91262.91;;;22.81;36.68
5952;BME280;3001;42.622;23.194;2023-03-23T13:38:35;91259.84;;;22.76;36.98